Time;durP1;ratioP1;P1;durP2;ratioP2;P2;SDS_P1;SDS_P2;PMS_P1;PMS_P2;Temp;Humidity;BMP_temperature;BMP_pressure;BME280_temperature;BME280_humidity;BME280_pressure;Samples;Min_cycle;Max_cycle;Signal;HPM_P1;HPM_P2
2023/11/10 00:02:21;;;;;;;1.03;0.80;;;8.90;99.90;;;;;;5035778;28;20230;-94
2023/11/10 00:04:49;;;;;;;3.07;0.80;;;8.90;99.90;;;;;;5029968;28;20214;-95
2023/11/10 00:07:17;;;;;;;0.40;0.40;;;8.80;99.90;;;;;;5021442;28;20233;-93
2023/11/10 00:09:46;;;;;;;0.70;0.60;;;8.80;99.90;;;;;;5022517;28;20309;-96
2023/11/10 00:12:14;;;;;;;3.60;1.93;;;8.80;99.90;;;;;;5039659;28;20178;-95
2023/11/10 00:14:40;;;;;;;0.60;0.60;;;8.80;99.90;;;;;;5038061;28;20186;-96
2023/11/10 00:17:10;;;;;;;2.53;1.23;;;8.90;99.90;;;;;;5039804;28;20226;-94
2023/11/10 00:19:43;;;;;;;0.63;0.47;;;8.90;99.90;;;;;;5043289;28;20218;-94
2023/11/10 00:22:11;;;;;;;0.13;0.13;;;8.90;99.90;;;;;;5040555;28;20279;-94
2023/11/10 00:24:39;;;;;;;0.67;0.67;;;8.90;99.90;;;;;;5018847;28;20595;-94
2023/11/10 00:27:09;;;;;;;0.60;0.60;;;8.90;99.90;;;;;;5038710;28;20520;-96
2023/11/10 00:29:45;;;;;;;0.60;0.60;;;8.90;99.90;;;;;;5039017;28;20186;-95
2023/11/10 00:32:12;;;;;;;0.93;0.93;;;8.90;99.90;;;;;;5037643;28;20218;-96
2023/11/10 00:34:39;;;;;;;0.40;0.40;;;9.00;99.90;;;;;;5038290;28;20211;-95
2023/11/10 00:37:05;;;;;;;1.17;1.17;;;9.00;99.90;;;;;;5036053;28;20229;-95
2023/11/10 00:39:31;;;;;;;1.00;0.83;;;9.00;99.90;;;;;;5036401;28;20305;-96
2023/11/10 00:41:58;;;;;;;0.60;0.50;;;9.00;99.90;;;;;;5017058;28;20710;-94
2023/11/10 00:44:24;;;;;;;0.20;0.20;;;9.00;99.90;;;;;;5037533;28;20274;-96
2023/11/10 00:46:50;;;;;;;1.17;0.43;;;9.00;99.90;;;;;;5020452;28;20313;-96
2023/11/10 00:49:16;;;;;;;1.23;1.17;;;9.00;99.90;;;;;;5034849;28;20222;-95
2023/11/10 00:51:43;;;;;;;0.70;0.70;;;9.00;99.90;;;;;;5036216;28;20309;-96
2023/11/10 00:54:09;;;;;;;1.00;0.93;;;8.90;99.90;;;;;;5028260;28;20619;-96
2023/11/10 00:56:35;;;;;;;0.93;0.93;;;8.90;99.90;;;;;;5038718;28;20240;-96
2023/11/10 00:59:04;;;;;;;1.83;1.73;;;8.80;99.90;;;;;;5041283;28;21043;-94
2023/11/10 01:01:35;;;;;;;1.40;0.67;;;8.80;99.90;;;;;;5015539;28;20214;-94
2023/11/10 01:04:01;;;;;;;1.03;1.03;;;8.80;99.90;;;;;;5038631;28;20219;-94
2023/11/10 01:06:28;;;;;;;0.60;0.60;;;8.80;99.90;;;;;;5038621;28;20254;-96
2023/11/10 01:08:54;;;;;;;0.60;0.60;;;8.70;99.90;;;;;;5018398;28;20205;-96
2023/11/10 01:11:20;;;;;;;0.60;0.60;;;8.70;99.90;;;;;;5029877;28;20226;-94
2023/11/10 01:13:46;;;;;;;0.87;0.87;;;8.70;99.90;;;;;;5031930;28;20214;-95
2023/11/10 01:16:12;;;;;;;1.90;1.00;;;8.70;99.90;;;;;;4998271;28;20218;-95
2023/11/10 01:18:38;;;;;;;0.40;0.40;;;8.70;99.90;;;;;;5028660;28;20250;-96
2023/11/10 01:21:04;;;;;;;0.33;0.33;;;8.70;99.90;;;;;;5032649;28;20190;-95
2023/11/10 01:23:29;;;;;;;1.00;1.00;;;8.70;99.90;;;;;;5029644;28;20531;-95
2023/11/10 01:25:55;;;;;;;2.13;1.30;;;8.70;99.90;;;;;;5013837;28;20210;-96
2023/11/10 01:28:24;;;;;;;3.10;0.57;;;8.80;99.90;;;;;;5011893;28;20221;-95
2023/11/10 01:30:51;;;;;;;0.73;0.73;;;8.80;99.90;;;;;;5027179;28;20230;-94
2023/11/10 01:33:17;;;;;;;1.73;1.00;;;8.80;99.90;;;;;;5012802;28;20301;-95
2023/11/10 01:35:43;;;;;;;0.60;0.60;;;8.80;99.90;;;;;;5030965;28;20363;-95
2023/11/10 01:38:10;;;;;;;0.63;0.63;;;8.80;99.90;;;;;;5029713;28;20325;-94
2023/11/10 01:40:40;;;;;;;0.80;0.80;;;8.80;99.90;;;;;;5045695;28;20376;-95
2023/11/10 01:43:14;;;;;;;2.17;0.73;;;8.80;99.90;;;;;;5031604;28;20279;-94
2023/11/10 01:45:41;;;;;;;2.47;1.30;;;8.80;99.90;;;;;;5047055;28;20218;-96
2023/11/10 01:48:08;;;;;;;0.87;0.80;;;8.80;99.90;;;;;;5017225;28;20198;-95
2023/11/10 01:50:34;;;;;;;2.07;1.87;;;8.70;99.90;;;;;;5035301;28;20182;-96
2023/11/10 01:53:03;;;;;;;1.80;1.70;;;8.70;99.90;;;;;;5033505;28;20305;-95
2023/11/10 01:55:30;;;;;;;0.53;0.53;;;8.70;99.90;;;;;;5018967;28;20789;-95
2023/11/10 01:57:57;;;;;;;1.53;0.87;;;8.70;99.90;;;;;;5035715;28;20318;-96
2023/11/10 02:00:29;;;;;;;6.23;1.10;;;8.70;99.90;;;;;;5036215;28;20365;-95
2023/11/10 02:03:01;;;;;;;1.07;0.83;;;8.70;99.90;;;;;;5029635;28;20170;-96
2023/11/10 02:05:27;;;;;;;1.07;0.50;;;8.70;99.90;;;;;;5016542;28;20211;-95
2023/11/10 02:07:53;;;;;;;0.80;0.80;;;8.70;99.90;;;;;;5033957;28;20232;-95
2023/11/10 02:10:20;;;;;;;0.97;0.97;;;8.70;99.90;;;;;;5033843;28;20245;-95
2023/11/10 02:12:57;;;;;;;1.30;1.20;;;8.60;99.90;;;;;;5035260;28;20221;-94
2023/11/10 02:15:26;;;;;;;1.63;1.53;;;8.70;99.90;;;;;;5037466;28;20222;-95
2023/11/10 02:17:52;;;;;;;0.97;0.97;;;8.60;99.90;;;;;;5021116;28;20292;-95
2023/11/10 02:20:18;;;;;;;2.20;1.77;;;8.60;99.90;;;;;;5039353;28;20232;-96
2023/11/10 02:22:47;;;;;;;2.00;1.77;;;8.60;99.90;;;;;;5036132;28;20219;-95
2023/11/10 02:25:19;;;;;;;2.43;2.23;;;8.60;99.90;;;;;;5039968;28;20218;-95
2023/11/10 02:27:46;;;;;;;0.93;0.93;;;8.60;99.90;;;;;;5053515;28;20296;-95
2023/11/10 02:30:12;;;;;;;1.10;1.10;;;8.60;99.90;;;;;;5033359;28;20355;-95
2023/11/10 02:32:39;;;;;;;1.50;0.73;;;8.70;99.90;;;;;;5036531;28;20228;-95
2023/11/10 02:35:08;;;;;;;0.77;0.77;;;8.70;99.90;;;;;;5036280;28;20226;-95
2023/11/10 02:37:34;;;;;;;1.43;1.33;;;8.70;99.90;;;;;;5031897;28;20249;-94
2023/11/10 02:40:00;;;;;;;1.00;0.97;;;8.70;99.90;;;;;;5032322;28;20237;-94
2023/11/10 02:42:26;;;;;;;2.43;1.83;;;8.70;99.90;;;;;;5027954;28;20213;-93
2023/11/10 02:44:52;;;;;;;1.90;1.80;;;8.70;99.90;;;;;;5031648;28;20685;-95
2023/11/10 02:47:18;;;;;;;0.93;0.93;;;8.70;99.90;;;;;;5029154;28;20218;-94
2023/11/10 02:49:44;;;;;;;1.27;1.17;;;8.70;99.90;;;;;;5030713;28;20226;-95
2023/11/10 02:52:10;;;;;;;0.83;0.80;;;8.70;99.90;;;;;;5029653;28;20222;-95
2023/11/10 02:54:36;;;;;;;2.67;2.00;;;8.80;99.90;;;;;;5029495;28;20366;-95
2023/11/10 02:57:01;;;;;;;1.40;1.17;;;8.80;99.90;;;;;;5018707;28;20298;-94
2023/11/10 02:59:27;;;;;;;0.47;0.47;;;8.80;99.90;;;;;;5016015;28;20229;-95
2023/11/10 03:01:55;;;;;;;1.03;0.90;;;8.80;99.90;;;;;;5014547;28;20226;-95
2023/11/10 03:04:21;;;;;;;1.90;1.80;;;8.70;99.90;;;;;;5033616;28;20713;-95
2023/11/10 03:06:48;;;;;;;1.93;1.37;;;8.80;99.90;;;;;;5026815;28;20218;-95
2023/11/10 03:09:15;;;;;;;1.30;1.30;;;8.70;99.90;;;;;;5017291;28;20214;-93
2023/11/10 03:11:41;;;;;;;4.83;2.10;;;8.80;99.90;;;;;;5029241;28;20185;-94
2023/11/10 03:14:07;;;;;;;2.33;2.23;;;8.80;99.90;;;;;;5028615;28;20226;-93
2023/11/10 03:16:33;;;;;;;0.70;0.70;;;8.80;99.90;;;;;;5030242;28;20269;-95
2023/11/10 03:18:59;;;;;;;2.80;1.17;;;8.80;99.90;;;;;;5030198;28;20237;-93
2023/11/10 03:21:26;;;;;;;3.20;1.07;;;8.80;99.90;;;;;;5030675;28;20253;-94
2023/11/10 03:23:51;;;;;;;1.43;1.23;;;8.80;99.90;;;;;;5024041;28;20198;-93
2023/11/10 03:26:17;;;;;;;0.87;0.87;;;8.70;99.90;;;;;;5015205;28;20632;-93
2023/11/10 03:28:43;;;;;;;1.13;1.13;;;8.80;99.90;;;;;;5031190;28;20249;-92
2023/11/10 03:31:09;;;;;;;2.63;2.47;;;8.80;99.90;;;;;;5030536;28;20242;-93
2023/11/10 03:33:35;;;;;;;0.70;0.70;;;8.80;99.90;;;;;;5014326;28;20237;-93
2023/11/10 03:36:04;;;;;;;1.43;1.00;;;8.80;99.90;;;;;;4999852;28;20716;-91
2023/11/10 03:38:31;;;;;;;2.90;2.17;;;8.80;99.90;;;;;;5016292;28;20218;-92
2023/11/10 03:40:58;;;;;;;0.63;0.60;;;8.80;99.90;;;;;;5012945;28;20210;-92
2023/11/10 03:43:25;;;;;;;0.70;0.70;;;8.80;99.90;;;;;;5015102;28;20237;-92
2023/11/10 03:45:51;;;;;;;1.53;1.43;;;8.80;99.90;;;;;;5029349;28;20209;-93
2023/11/10 03:48:17;;;;;;;4.13;1.77;;;8.70;99.90;;;;;;5034513;28;20225;-93
2023/11/10 03:50:43;;;;;;;2.10;1.27;;;8.70;99.90;;;;;;5015945;28;20190;-95
2023/11/10 03:53:09;;;;;;;0.60;0.60;;;8.70;99.90;;;;;;5017082;28;21077;-92
2023/11/10 03:55:35;;;;;;;1.37;1.27;;;8.70;99.90;;;;;;5020819;28;20959;-93
2023/11/10 03:58:00;;;;;;;0.63;0.63;;;8.70;99.90;;;;;;5018780;28;20240;-93
2023/11/10 04:00:26;;;;;;;0.73;0.73;;;8.70;99.90;;;;;;5020377;28;20254;-93
2023/11/10 04:02:53;;;;;;;1.33;0.77;;;8.80;99.90;;;;;;5039205;28;20196;-92
2023/11/10 04:05:18;;;;;;;0.73;0.73;;;8.70;99.90;;;;;;5056487;28;20771;-93
2023/11/10 04:07:44;;;;;;;1.33;1.33;;;8.70;99.90;;;;;;5017676;28;20238;-92
2023/11/10 04:10:10;;;;;;;2.90;2.40;;;8.80;99.90;;;;;;5004080;28;20821;-92
2023/11/10 04:12:36;;;;;;;1.37;1.30;;;8.80;99.90;;;;;;5036426;28;20213;-92
2023/11/10 04:15:03;;;;;;;2.27;1.40;;;8.70;99.90;;;;;;5000492;28;20404;-94
2023/11/10 04:17:29;;;;;;;10.87;2.00;;;8.70;99.90;;;;;;5040715;28;20245;-94
2023/11/10 04:19:55;;;;;;;1.60;1.50;;;8.70;99.90;;;;;;5018778;28;20226;-94
2023/11/10 04:22:21;;;;;;;1.10;0.80;;;8.70;99.90;;;;;;5019437;28;20698;-94
2023/11/10 04:24:46;;;;;;;0.80;0.80;;;8.70;99.90;;;;;;5035041;28;20716;-93
2023/11/10 04:27:12;;;;;;;1.23;1.13;;;8.70;99.90;;;;;;5038115;28;21110;-93
2023/11/10 04:29:39;;;;;;;3.57;1.87;;;8.70;99.90;;;;;;5036945;28;20201;-94
2023/11/10 04:32:05;;;;;;;1.87;1.43;;;8.70;99.90;;;;;;5020402;28;20322;-94
2023/11/10 04:34:31;;;;;;;1.50;1.30;;;8.70;99.90;;;;;;5018380;28;20225;-95
2023/11/10 04:36:57;;;;;;;2.00;1.20;;;8.70;99.90;;;;;;5020180;28;20221;-93
2023/11/10 04:39:23;;;;;;;0.30;0.30;;;8.70;99.90;;;;;;5017252;28;20264;-94
2023/11/10 04:41:49;;;;;;;1.20;1.10;;;8.70;99.90;;;;;;5037334;28;20198;-93
2023/11/10 04:44:16;;;;;;;2.53;1.40;;;8.70;99.90;;;;;;5036172;28;20227;-93
2023/11/10 04:46:42;;;;;;;1.70;1.60;;;8.80;99.90;;;;;;5020272;28;20328;-94
2023/11/10 04:49:11;;;;;;;1.10;1.10;;;8.80;99.90;;;;;;5035858;28;20223;-92
2023/11/10 04:51:37;;;;;;;2.10;1.53;;;8.80;99.90;;;;;;5034584;28;20601;-93
2023/11/10 04:54:04;;;;;;;0.77;0.77;;;8.80;99.90;;;;;;5018599;28;20210;-94
2023/11/10 04:56:31;;;;;;;7.17;1.60;;;8.80;99.90;;;;;;5035136;28;20182;-94
2023/11/10 04:58:56;;;;;;;0.73;0.53;;;8.80;99.90;;;;;;5034142;28;20272;-94
2023/11/10 05:01:23;;;;;;;1.43;0.70;;;8.80;99.90;;;;;;5036972;28;20317;-91
2023/11/10 05:03:49;;;;;;;5.93;1.90;;;8.80;99.90;;;;;;5026660;28;20305;-93
2023/11/10 05:06:15;;;;;;;1.67;1.57;;;8.80;99.90;;;;;;5003656;28;20293;-93
2023/11/10 05:08:41;;;;;;;0.83;0.83;;;8.80;99.90;;;;;;5019897;28;20194;-92
2023/11/10 05:11:07;;;;;;;0.70;0.70;;;8.80;99.90;;;;;;5017477;28;20229;-95
2023/11/10 05:13:33;;;;;;;2.10;1.60;;;8.80;99.90;;;;;;5019205;28;20226;-96
2023/11/10 05:15:59;;;;;;;1.03;0.60;;;8.80;99.90;;;;;;5027200;28;20222;-94
2023/11/10 05:18:27;;;;;;;2.37;0.77;;;8.80;99.90;;;;;;5002729;28;20238;-96
2023/11/10 05:20:56;;;;;;;0.97;0.87;;;8.70;99.90;;;;;;5036374;28;20198;-95
2023/11/10 05:23:22;;;;;;;1.53;1.43;;;8.70;99.90;;;;;;5019875;28;20206;-95
2023/11/10 05:25:49;;;;;;;0.67;0.67;;;8.70;99.90;;;;;;5016007;28;20259;-95
2023/11/10 05:28:15;;;;;;;0.30;0.30;;;8.70;99.90;;;;;;5017684;28;20222;-95
2023/11/10 05:30:41;;;;;;;0.70;0.70;;;8.60;99.90;;;;;;5037157;28;20211;-94
2023/11/10 05:33:08;;;;;;;1.97;1.07;;;8.60;99.90;;;;;;5039211;28;20211;-96
2023/11/10 05:35:34;;;;;;;0.97;0.97;;;8.60;99.90;;;;;;5036143;28;20236;-96
2023/11/10 05:38:00;;;;;;;0.73;0.73;;;8.60;99.90;;;;;;5036180;28;21118;-95
2023/11/10 05:40:26;;;;;;;0.40;0.40;;;8.60;99.90;;;;;;5039673;28;20229;-95
2023/11/10 05:42:53;;;;;;;1.43;1.33;;;8.60;99.90;;;;;;5039293;28;20609;-96
2023/11/10 05:45:19;;;;;;;1.23;1.13;;;8.60;99.90;;;;;;5036740;28;20284;-95
2023/11/10 05:47:44;;;;;;;3.70;2.13;;;8.60;99.90;;;;;;5020335;28;20190;-95
2023/11/10 05:50:14;;;;;;;1.53;1.43;;;8.60;99.90;;;;;;5038444;28;20227;-95
2023/11/10 05:52:40;;;;;;;1.23;1.13;;;8.60;99.90;;;;;;5035297;28;20300;-95
2023/11/10 05:55:06;;;;;;;1.47;1.37;;;8.60;99.90;;;;;;5035689;28;20213;-95
2023/11/10 05:57:32;;;;;;;1.37;1.23;;;8.70;99.90;;;;;;5023766;28;20290;-94
2023/11/10 05:59:59;;;;;;;4.43;2.27;;;8.60;99.90;;;;;;5018069;28;20194;-95
2023/11/10 06:02:25;;;;;;;3.90;1.97;;;8.70;99.90;;;;;;5021097;28;20241;-95
2023/11/10 06:04:52;;;;;;;1.17;1.17;;;8.60;99.90;;;;;;5023316;28;20221;-96
2023/11/10 06:07:20;;;;;;;2.10;1.03;;;8.60;99.90;;;;;;5041074;28;20223;-95
2023/11/10 06:09:49;;;;;;;1.47;1.37;;;8.60;99.90;;;;;;5024160;28;20238;-94
2023/11/10 06:12:17;;;;;;;1.57;1.57;;;8.60;99.90;;;;;;5044109;28;20182;-95
2023/11/10 06:14:43;;;;;;;0.90;0.90;;;8.70;99.90;;;;;;5040613;28;21104;-95
2023/11/10 06:17:10;;;;;;;1.00;1.00;;;8.70;99.90;;;;;;5035704;28;20230;-95
2023/11/10 06:19:36;;;;;;;0.73;0.63;;;8.60;99.90;;;;;;5033297;28;20696;-95
2023/11/10 06:22:05;;;;;;;1.13;1.07;;;8.60;99.90;;;;;;5033457;28;20376;-96
2023/11/10 06:24:30;;;;;;;1.63;1.53;;;8.70;99.90;;;;;;5014491;28;20228;-94
2023/11/10 06:26:56;;;;;;;2.10;1.60;;;8.70;99.90;;;;;;5028073;28;20186;-93
2023/11/10 06:29:23;;;;;;;1.10;1.10;;;8.70;99.90;;;;;;4997064;28;20226;-94
2023/11/10 06:31:51;;;;;;;9.17;2.40;;;8.80;99.90;;;;;;5033276;28;20225;-94
2023/11/10 06:34:17;;;;;;;2.60;1.40;;;8.80;99.90;;;;;;5031649;28;20322;-95
2023/11/10 06:36:46;;;;;;;0.77;0.70;;;8.80;99.90;;;;;;5049833;28;20260;-94
2023/11/10 06:39:12;;;;;;;0.73;0.73;;;8.80;99.90;;;;;;5039505;28;20193;-96
2023/11/10 06:41:38;;;;;;;1.13;0.93;;;8.80;99.90;;;;;;5037394;28;20190;-95
2023/11/10 06:44:04;;;;;;;1.33;1.33;;;8.70;99.90;;;;;;5038619;28;20309;-94
2023/11/10 06:46:30;;;;;;;1.83;1.40;;;8.70;99.90;;;;;;5037455;28;20228;-94
2023/11/10 06:48:57;;;;;;;1.83;1.77;;;8.70;99.90;;;;;;5015557;28;20635;-93
2023/11/10 06:51:23;;;;;;;1.90;1.80;;;8.70;99.90;;;;;;5000258;28;20222;-95
2023/11/10 06:53:48;;;;;;;1.43;1.33;;;8.70;99.90;;;;;;5018606;28;20186;-94
2023/11/10 06:56:14;;;;;;;6.23;1.90;;;8.70;99.90;;;;;;5024501;28;20259;-95
2023/11/10 06:58:40;;;;;;;0.90;0.90;;;8.70;99.90;;;;;;5034690;28;20242;-90
2023/11/10 07:01:08;;;;;;;1.00;1.00;;;8.70;99.90;;;;;;5018962;28;20286;-93
2023/11/10 07:03:34;;;;;;;1.10;1.10;;;8.60;99.90;;;;;;5034079;28;20244;-95
2023/11/10 07:06:04;;;;;;;2.17;2.03;;;8.60;99.90;;;;;;5036168;28;20214;-94
2023/11/10 07:08:31;;;;;;;7.10;2.20;;;8.60;99.90;;;;;;5040170;28;20181;-94
2023/11/10 07:11:01;;;;;;;1.10;0.70;;;8.50;99.90;;;;;;5033714;28;20218;-95
2023/11/10 07:13:29;;;;;;;0.53;0.53;;;8.50;99.90;;;;;;5020742;28;20222;-96
2023/11/10 07:15:56;;;;;;;0.63;0.63;;;8.50;99.90;;;;;;5019399;28;20242;-94
2023/11/10 07:18:23;;;;;;;3.03;2.73;;;8.50;99.90;;;;;;5032265;28;20280;-94
2023/11/10 07:20:49;;;;;;;3.37;1.80;;;8.50;99.90;;;;;;5034355;28;20182;-94
2023/11/10 07:23:15;;;;;;;1.80;1.70;;;8.50;99.90;;;;;;5018078;28;20225;-94
2023/11/10 07:25:41;;;;;;;3.43;1.30;;;8.70;99.90;;;;;;5036205;28;20218;-94
2023/11/10 07:28:07;;;;;;;2.87;1.87;;;8.80;99.90;;;;;;5018546;28;20226;-95
2023/11/10 07:30:35;;;;;;;1.13;0.77;;;8.90;99.90;;;;;;5037405;28;20256;-96
2023/11/10 07:33:01;;;;;;;1.10;1.10;;;8.90;99.90;;;;;;5035388;28;20533;-93
2023/11/10 07:35:27;;;;;;;1.97;1.77;;;8.90;99.90;;;;;;5007244;28;20190;-91
2023/11/10 07:37:53;;;;;;;7.07;2.10;;;8.90;99.90;;;;;;5023629;28;20318;-91
2023/11/10 07:40:21;;;;;;;2.27;2.13;;;8.90;99.90;;;;;;5040179;28;20286;-96
2023/11/10 07:42:47;;;;;;;1.87;1.73;;;9.00;99.90;;;;;;5040347;28;20221;-94
2023/11/10 07:45:14;;;;;;;2.07;1.77;;;9.00;99.90;;;;;;5039393;28;20496;-90
2023/11/10 07:47:44;;;;;;;1.77;1.40;;;9.10;99.90;;;;;;5039985;28;20255;-91
2023/11/10 07:50:13;;;;;;;1.90;1.80;;;9.20;99.90;;;;;;5038855;28;20218;-95
2023/11/10 07:52:42;;;;;;;7.43;2.33;;;9.30;99.90;;;;;;5040617;28;20234;-96
2023/11/10 07:55:08;;;;;;;4.80;2.10;;;9.30;99.90;;;;;;5040887;28;20245;-95
2023/11/10 07:57:34;;;;;;;2.37;2.17;;;9.30;99.90;;;;;;5027917;28;20226;-94
2023/11/10 08:00:02;;;;;;;3.73;1.53;;;9.30;99.90;;;;;;5027619;28;20244;-96
2023/11/10 08:02:28;;;;;;;2.27;2.07;;;9.20;99.90;;;;;;5038223;28;20276;-94
2023/11/10 08:04:54;;;;;;;2.03;1.93;;;9.20;99.90;;;;;;5020285;28;20614;-95
2023/11/10 08:07:22;;;;;;;1.60;1.50;;;9.20;99.90;;;;;;5018874;28;20233;-96
2023/11/10 08:09:47;;;;;;;1.30;1.17;;;9.20;99.90;;;;;;5039986;28;20221;-94
2023/11/10 08:12:14;;;;;;;2.70;1.60;;;9.10;99.90;;;;;;5039093;28;20190;-95
2023/11/10 08:14:40;;;;;;;1.53;1.00;;;9.10;99.90;;;;;;5040026;28;20178;-94
2023/11/10 08:17:07;;;;;;;2.57;1.73;;;9.10;99.90;;;;;;5021617;28;20234;-94
2023/11/10 08:19:33;;;;;;;2.33;2.13;;;9.10;99.90;;;;;;5037257;28;20234;-95
2023/11/10 08:22:00;;;;;;;1.13;1.13;;;9.20;99.90;;;;;;5037219;28;20210;-94
2023/11/10 08:24:26;;;;;;;1.90;1.80;;;9.20;99.90;;;;;;5038308;28;20297;-94
2023/11/10 08:26:53;;;;;;;0.63;0.63;;;9.10;99.90;;;;;;5020611;28;20234;-95
2023/11/10 08:29:19;;;;;;;8.70;1.67;;;9.10;99.90;;;;;;5036862;28;20273;-96
2023/11/10 08:31:47;;;;;;;3.73;1.17;;;9.10;99.90;;;;;;5039042;28;20210;-94
2023/11/10 08:34:13;;;;;;;0.43;0.43;;;9.00;99.90;;;;;;5026345;28;20312;-96
2023/11/10 08:36:40;;;;;;;1.10;1.10;;;9.00;99.90;;;;;;5025247;28;20305;-94
2023/11/10 08:39:08;;;;;;;8.80;2.30;;;9.00;99.90;;;;;;5024888;28;20210;-95
2023/11/10 08:41:34;;;;;;;1.73;1.57;;;9.00;99.90;;;;;;5041065;28;20221;-94
2023/11/10 08:44:04;;;;;;;0.60;0.60;;;9.10;99.90;;;;;;5033876;28;20683;-95
2023/11/10 08:46:32;;;;;;;0.40;0.40;;;9.00;99.90;;;;;;5037458;28;20275;-96
2023/11/10 08:48:59;;;;;;;0.93;0.80;;;9.00;99.90;;;;;;5053154;28;20667;-94
2023/11/10 08:51:25;;;;;;;1.50;1.23;;;9.00;99.90;;;;;;5038378;28;20789;-96
2023/11/10 08:53:51;;;;;;;0.87;0.83;;;9.00;99.90;;;;;;5034469;28;20178;-96
2023/11/10 08:56:17;;;;;;;0.93;0.93;;;9.10;99.90;;;;;;5004125;28;20221;-93
2023/11/10 08:58:44;;;;;;;1.03;0.97;;;9.10;99.90;;;;;;5018739;28;20275;-94
2023/11/10 09:01:10;;;;;;;1.40;0.73;;;9.10;99.90;;;;;;5021399;28;20223;-95
2023/11/10 09:03:35;;;;;;;0.60;0.50;;;9.20;99.90;;;;;;5019400;28;20222;-94
2023/11/10 09:06:01;;;;;;;0.40;0.40;;;9.20;99.90;;;;;;5036161;28;20194;-93
2023/11/10 09:08:27;;;;;;;0.53;0.53;;;9.20;99.90;;;;;;5023082;28;20787;-92
2023/11/10 09:10:54;;;;;;;0.80;0.70;;;9.20;99.90;;;;;;5005766;28;20582;-94
2023/11/10 09:13:20;;;;;;;0.77;0.77;;;9.20;99.90;;;;;;5002959;28;20228;-90
2023/11/10 09:15:47;;;;;;;3.00;0.87;;;9.20;99.90;;;;;;5021700;28;20301;-92
2023/11/10 09:18:13;;;;;;;1.60;1.50;;;9.20;99.90;;;;;;5003036;28;20304;-92
2023/11/10 09:20:39;;;;;;;0.47;0.47;;;9.30;99.90;;;;;;5020672;28;20190;-94
2023/11/10 09:23:05;;;;;;;0.40;0.40;;;9.30;99.90;;;;;;5002086;28;20210;-95
2023/11/10 09:25:31;;;;;;;4.37;1.10;;;9.30;99.90;;;;;;5037392;28;20666;-95
2023/11/10 09:27:57;;;;;;;1.20;1.20;;;9.30;99.90;;;;;;5002358;28;20207;-96
2023/11/10 09:30:24;;;;;;;0.93;0.90;;;9.30;99.90;;;;;;5034449;28;20225;-93
2023/11/10 09:32:51;;;;;;;6.67;1.13;;;9.20;99.90;;;;;;5020574;28;20277;-93
2023/11/10 09:35:17;;;;;;;1.37;0.73;;;9.20;99.90;;;;;;5034665;28;20224;-93
2023/11/10 09:37:46;;;;;;;2.00;0.73;;;9.20;99.90;;;;;;5037146;28;20233;-94
2023/11/10 09:40:13;;;;;;;0.40;0.40;;;9.20;99.90;;;;;;5021477;28;20225;-92
2023/11/10 09:42:42;;;;;;;0.63;0.63;;;9.20;99.90;;;;;;5038527;28;20214;-91
2023/11/10 09:45:12;;;;;;;0.40;0.37;;;9.30;99.90;;;;;;5020932;28;20285;-92
2023/11/10 09:47:40;;;;;;;0.20;0.20;;;9.40;99.90;;;;;;5037536;28;20256;-92
2023/11/10 09:50:08;;;;;;;0.50;0.50;;;9.40;99.90;;;;;;5020624;28;20288;-93
2023/11/10 09:52:36;;;;;;;0.47;0.47;;;9.40;99.90;;;;;;5032876;28;20215;-93
2023/11/10 09:55:02;;;;;;;0.50;0.50;;;9.40;99.90;;;;;;5016811;28;20219;-94
2023/11/10 09:57:28;;;;;;;0.30;0.30;;;9.40;99.90;;;;;;5034095;28;20720;-92
2023/11/10 09:59:56;;;;;;;0.27;0.27;;;9.50;99.90;;;;;;5037093;28;20312;-91
2023/11/10 10:02:22;;;;;;;2.57;0.80;;;9.40;99.90;;;;;;5018642;28;20290;-94
2023/11/10 10:04:48;;;;;;;1.80;0.70;;;9.50;99.90;;;;;;5033623;28;20357;-94
2023/11/10 10:07:16;;;;;;;0.77;0.53;;;9.50;99.90;;;;;;5014500;28;20272;-91
2023/11/10 10:09:43;;;;;;;1.80;1.70;;;9.50;99.90;;;;;;5033687;28;20219;-94
2023/11/10 10:12:11;;;;;;;0.60;0.60;;;9.40;99.90;;;;;;5017437;28;20195;-92
2023/11/10 10:14:40;;;;;;;1.97;0.60;;;9.40;99.90;;;;;;5034380;28;20260;-91
2023/11/10 10:17:11;;;;;;;0.43;0.43;;;9.40;99.90;;;;;;5016304;28;20218;-92
2023/11/10 10:19:36;;;;;;;1.00;1.00;;;9.40;99.90;;;;;;5035095;28;20217;-93
2023/11/10 10:22:02;;;;;;;1.30;1.30;;;9.40;99.90;;;;;;5034687;28;20578;-95
2023/11/10 10:24:29;;;;;;;1.07;0.87;;;9.40;99.90;;;;;;5018163;28;20237;-92
2023/11/10 10:26:56;;;;;;;1.40;1.37;;;9.40;99.90;;;;;;5035216;28;20225;-91
2023/11/10 10:29:22;;;;;;;0.57;0.57;;;9.40;99.90;;;;;;5032466;28;20223;-94
2023/11/10 10:31:49;;;;;;;1.33;1.10;;;9.50;99.90;;;;;;5026870;28;20216;-92
2023/11/10 10:34:15;;;;;;;1.70;1.10;;;9.50;99.90;;;;;;5034555;28;20207;-95
2023/11/10 10:36:44;;;;;;;1.23;0.83;;;9.50;99.90;;;;;;5037264;28;20222;-91
2023/11/10 10:39:15;;;;;;;1.87;1.43;;;9.40;99.90;;;;;;5035022;28;20218;-95
2023/11/10 10:41:42;;;;;;;1.10;1.00;;;9.40;99.90;;;;;;5036282;28;20235;-93
2023/11/10 10:44:08;;;;;;;0.83;0.63;;;9.40;99.90;;;;;;5033654;28;20305;-93
2023/11/10 10:46:38;;;;;;;2.00;1.90;;;9.40;99.90;;;;;;5035141;28;20221;-94
2023/11/10 10:49:06;;;;;;;0.93;0.93;;;9.40;99.90;;;;;;5030344;28;20603;-94
2023/11/10 10:51:37;;;;;;;1.00;1.00;;;9.50;99.90;;;;;;5031616;28;20233;-94
2023/11/10 10:54:05;;;;;;;1.17;1.07;;;9.50;99.90;;;;;;5032736;28;20190;-95
2023/11/10 10:56:35;;;;;;;1.57;0.90;;;9.40;99.90;;;;;;5044711;28;20731;-93
2023/11/10 10:59:02;;;;;;;1.60;1.43;;;9.40;99.90;;;;;;5036292;28;20659;-94
2023/11/10 11:01:28;;;;;;;1.20;1.20;;;9.40;99.90;;;;;;5039070;28;20221;-92
2023/11/10 11:04:12;;;;;;;1.43;1.20;;;9.50;99.90;;;;;;5034398;28;20218;-94
2023/11/10 11:06:53;;;;;;;0.93;0.93;;;9.50;99.90;;;;;;5036309;28;20242;-93
2023/11/10 11:09:56;;;;;;;3.50;1.13;;;9.40;99.90;;;;;;5038273;28;20242;-96
2023/11/10 11:12:34;;;;;;;0.87;0.87;;;9.40;99.90;;;;;;5038547;28;20808;-93
2023/11/10 11:15:06;;;;;;;1.80;1.30;;;9.40;99.90;;;;;;5039016;28;20634;-95
2023/11/10 11:17:53;;;;;;;1.00;1.00;;;9.40;99.90;;;;;;5036008;28;20229;-93
2023/11/10 11:20:20;;;;;;;0.57;0.57;;;9.40;99.90;;;;;;5038214;28;20237;-93
2023/11/10 11:22:47;;;;;;;13.93;1.27;;;9.40;99.90;;;;;;5036450;28;20272;-92
2023/11/10 11:25:13;;;;;;;1.43;1.33;;;9.40;99.90;;;;;;5017969;28;20561;-96
2023/11/10 11:27:39;;;;;;;1.30;1.20;;;9.40;99.90;;;;;;5035548;28;20222;-92
2023/11/10 11:30:11;;;;;;;3.30;0.97;;;9.40;99.90;;;;;;5020440;28;20651;-93
2023/11/10 11:32:41;;;;;;;1.23;1.13;;;9.40;99.90;;;;;;5036535;28;20236;-95
2023/11/10 11:35:12;;;;;;;0.67;0.67;;;9.40;99.90;;;;;;5043830;28;20269;-93
2023/11/10 11:37:39;;;;;;;1.43;1.37;;;9.40;99.90;;;;;;5023680;28;20229;-90
2023/11/10 11:40:08;;;;;;;0.43;0.43;;;9.30;99.90;;;;;;5046028;28;20222;-93
2023/11/10 11:42:36;;;;;;;1.87;1.33;;;9.30;99.90;;;;;;5036104;28;20221;-95
2023/11/10 11:45:09;;;;;;;1.33;0.87;;;9.30;99.90;;;;;;5036409;28;20244;-95
2023/11/10 11:47:34;;;;;;;1.33;0.80;;;9.20;99.90;;;;;;5021479;28;20228;-96
2023/11/10 11:50:03;;;;;;;3.43;1.77;;;9.20;99.90;;;;;;5024515;28;20219;-96
2023/11/10 11:52:29;;;;;;;3.17;1.37;;;9.20;99.90;;;;;;5042327;28;20225;-92
2023/11/10 11:54:54;;;;;;;2.30;1.53;;;9.20;99.90;;;;;;5027711;28;20213;-93
2023/11/10 11:57:22;;;;;;;1.37;1.27;;;9.10;99.90;;;;;;5024943;28;20310;-95
2023/11/10 11:59:48;;;;;;;0.40;0.40;;;9.20;99.90;;;;;;5025154;28;20194;-94
2023/11/10 12:02:14;;;;;;;2.37;2.27;;;9.10;99.90;;;;;;5018112;28;20247;-93
2023/11/10 12:04:40;;;;;;;1.90;1.73;;;9.10;99.90;;;;;;5020029;28;20241;-93
2023/11/10 12:07:06;;;;;;;1.80;1.70;;;9.10;99.90;;;;;;5050487;28;20191;-94
2023/11/10 12:09:32;;;;;;;1.47;1.37;;;9.20;99.90;;;;;;5047330;28;20191;-93
2023/11/10 12:11:58;;;;;;;1.33;1.23;;;9.10;99.90;;;;;;5043596;28;20198;-93
2023/11/10 12:14:24;;;;;;;1.60;1.50;;;9.10;99.90;;;;;;5042912;28;20182;-95
2023/11/10 12:16:50;;;;;;;2.30;2.10;;;9.00;99.90;;;;;;5044594;28;20283;-96
2023/11/10 12:19:16;;;;;;;3.70;0.70;;;9.00;99.90;;;;;;5042160;28;20883;-95
2023/11/10 12:21:43;;;;;;;7.80;1.50;;;9.10;99.90;;;;;;5023256;28;20687;-93
2023/11/10 12:24:10;;;;;;;2.77;2.50;;;9.00;99.90;;;;;;5024834;28;20279;-93
2023/11/10 12:26:40;;;;;;;1.93;1.83;;;9.10;99.90;;;;;;5019803;28;20262;-93
2023/11/10 12:29:17;;;;;;;1.53;1.37;;;9.00;99.90;;;;;;5035136;28;20219;-93
2023/11/10 12:31:48;;;;;;;1.93;1.50;;;9.00;99.90;;;;;;5040054;28;20229;-94
2023/11/10 12:34:14;;;;;;;1.40;1.37;;;9.10;99.90;;;;;;5038991;28;20714;-95
2023/11/10 12:36:41;;;;;;;1.23;1.17;;;9.10;99.90;;;;;;5051705;28;20218;-93
2023/11/10 12:42:48;;;;;;;1.20;1.10;;;9.20;99.90;;;;;;5019288;28;20222;-93
2023/11/10 12:45:16;;;;;;;1.63;1.07;;;9.20;99.90;;;;;;5041471;28;20190;-92
2023/11/10 12:47:47;;;;;;;1.30;1.30;;;9.20;99.90;;;;;;5042255;28;20633;-93
2023/11/10 12:50:16;;;;;;;0.93;0.93;;;9.20;99.90;;;;;;5052835;28;20229;-93
2023/11/10 12:52:43;;;;;;;1.13;1.13;;;9.20;99.90;;;;;;5041854;28;20226;-95
2023/11/10 12:55:10;;;;;;;1.30;1.23;;;9.10;99.90;;;;;;5039894;28;20218;-95
2023/11/10 12:57:36;;;;;;;0.60;0.60;;;9.10;99.90;;;;;;5028411;28;20249;-95
2023/11/10 13:00:11;;;;;;;0.30;0.30;;;9.10;99.90;;;;;;5039530;28;20190;-93
2023/11/10 13:02:40;;;;;;;0.77;0.77;;;9.10;99.90;;;;;;5040266;28;20534;-93